createdAt,value
2023-02-06T00:01:50.080Z,3.10
2023-02-06T00:04:20.590Z,3.70
2023-02-06T00:06:53.059Z,3.60
2023-02-06T00:09:21.171Z,4.50
2023-02-06T00:11:49.258Z,4.13
2023-02-06T00:14:17.430Z,3.20
2023-02-06T00:16:47.979Z,4.23
2023-02-06T00:19:16.105Z,4.17
2023-02-06T00:21:44.168Z,4.23
2023-02-06T00:24:13.628Z,3.73
2023-02-06T00:26:41.767Z,3.93
2023-02-06T00:29:09.894Z,3.20
2023-02-06T00:31:40.211Z,3.23
2023-02-06T00:34:10.577Z,3.00
2023-02-06T00:36:40.510Z,4.13
2023-02-06T00:39:09.280Z,3.60
2023-02-06T00:41:41.173Z,3.67
2023-02-06T00:44:09.272Z,3.80
2023-02-06T00:46:37.425Z,3.90
2023-02-06T00:49:05.650Z,3.53
2023-02-06T00:51:33.749Z,4.57
2023-02-06T00:54:01.856Z,3.57
2023-02-06T00:56:30.003Z,3.93
2023-02-06T00:59:01.941Z,4.20
2023-02-06T01:01:33.560Z,4.27
2023-02-06T01:04:04.423Z,3.63
2023-02-06T01:06:32.516Z,3.60
2023-02-06T01:09:02.649Z,4.30
2023-02-06T01:11:30.693Z,3.83
2023-02-06T01:13:58.891Z,4.47
2023-02-06T01:16:30.701Z,5.37
2023-02-06T01:19:01.261Z,4.10
2023-02-06T01:21:29.410Z,3.87
2023-02-06T01:23:59.645Z,5.20
2023-02-06T01:26:30.795Z,4.27
2023-02-06T01:29:00.998Z,3.47
2023-02-06T01:31:32.541Z,4.57
2023-02-06T01:34:01.581Z,5.20
2023-02-06T01:36:29.836Z,5.53
2023-02-06T01:38:58.104Z,4.47
2023-02-06T01:41:26.196Z,5.00
2023-02-06T01:44:12.662Z,7.13
2023-02-06T01:46:44.528Z,5.27
2023-02-06T01:49:18.360Z,5.33
2023-02-06T01:51:50.972Z,4.87
2023-02-06T01:54:21.584Z,4.73
2023-02-06T01:56:54.040Z,5.40
2023-02-06T01:59:22.564Z,3.87
2023-02-06T02:01:52.040Z,3.83
2023-02-06T02:04:22.880Z,3.20
2023-02-06T02:07:03.292Z,4.13
2023-02-06T02:09:32.689Z,4.30
2023-02-06T02:12:00.889Z,3.67
2023-02-06T02:14:29.081Z,3.83
2023-02-06T02:17:12.668Z,3.60
2023-02-06T02:20:21.853Z,3.40
2023-02-06T02:23:02.574Z,4.03
2023-02-06T02:26:15.173Z,2.30
2023-02-06T02:29:20.610Z,4.00
2023-02-06T02:32:11.150Z,2.53
2023-02-06T02:35:03.363Z,2.87
2023-02-06T02:37:39.710Z,3.87
2023-02-06T02:40:19.356Z,3.53
2023-02-06T02:43:00.055Z,3.20
2023-02-06T02:45:34.159Z,3.50
2023-02-06T02:48:07.685Z,3.20
2023-02-06T02:50:38.509Z,3.77
2023-02-06T02:53:07.707Z,3.67
2023-02-06T02:55:37.228Z,3.17
2023-02-06T02:58:08.968Z,3.73
2023-02-06T03:00:43.299Z,3.07
2023-02-06T03:03:16.937Z,3.70
2023-02-06T03:05:58.440Z,3.70
2023-02-06T03:08:35.425Z,3.40
2023-02-06T03:11:11.101Z,2.80
2023-02-06T03:13:47.061Z,3.50
2023-02-06T03:16:22.171Z,2.50
2023-02-06T03:18:59.729Z,3.30
2023-02-06T03:21:31.373Z,4.33
2023-02-06T03:24:07.797Z,2.70
2023-02-06T03:26:38.202Z,3.33
2023-02-06T03:29:09.907Z,3.00
2023-02-06T03:31:43.961Z,2.63
2023-02-06T03:34:16.068Z,2.70
2023-02-06T03:36:48.845Z,2.40
2023-02-06T03:39:17.200Z,2.30
2023-02-06T03:41:46.577Z,2.73
2023-02-06T03:44:21.321Z,3.33
2023-02-06T03:46:51.465Z,2.77
2023-02-06T03:49:25.750Z,2.83
2023-02-06T03:52:00.009Z,2.70
2023-02-06T03:54:30.422Z,2.93
2023-02-06T03:57:01.418Z,2.63
2023-02-06T03:59:29.975Z,3.20
2023-02-06T04:01:59.685Z,2.40
2023-02-06T04:04:31.961Z,3.10
2023-02-06T04:07:03.902Z,3.40
2023-02-06T04:09:32.008Z,3.30
2023-02-06T04:12:02.345Z,3.03
2023-02-06T04:14:30.416Z,3.73
2023-02-06T04:17:00.756Z,2.73
2023-02-06T04:19:28.795Z,3.27
2023-02-06T04:22:00.944Z,2.77
2023-02-06T04:24:31.702Z,3.37
2023-02-06T04:27:00.097Z,3.53
2023-02-06T04:29:31.152Z,3.00
2023-02-06T04:32:02.115Z,3.00
2023-02-06T04:34:32.451Z,3.20
2023-02-06T04:37:02.852Z,4.80
2023-02-06T04:39:33.794Z,3.70
2023-02-06T04:42:03.951Z,3.90
2023-02-06T04:44:32.374Z,4.97
2023-02-06T04:47:00.576Z,4.23
2023-02-06T04:49:28.834Z,4.40
2023-02-06T04:51:59.216Z,3.57
2023-02-06T04:54:32.685Z,3.13
2023-02-06T04:57:00.952Z,3.73
2023-02-06T04:59:29.275Z,3.73
2023-02-06T05:01:57.387Z,3.63
2023-02-06T05:04:25.550Z,2.87
2023-02-06T05:06:55.772Z,3.03
2023-02-06T05:09:26.170Z,3.70
2023-02-06T05:11:55.599Z,3.23
2023-02-06T05:14:24.098Z,2.70
2023-02-06T05:16:54.509Z,3.83
2023-02-06T05:19:22.659Z,3.97
2023-02-06T05:21:50.759Z,4.50
2023-02-06T05:24:18.875Z,3.90
2023-02-06T05:26:47.114Z,3.50
2023-02-06T05:29:18.978Z,3.03
2023-02-06T05:31:49.437Z,3.53
2023-02-06T05:34:17.656Z,3.10
2023-02-06T05:36:48.189Z,4.17
2023-02-06T05:39:18.857Z,3.93
2023-02-06T05:41:55.635Z,3.53
2023-02-06T05:44:25.309Z,3.57
2023-02-06T05:46:53.480Z,3.37
2023-02-06T05:49:21.714Z,3.30
2023-02-06T05:51:49.918Z,3.03
2023-02-06T05:54:18.469Z,3.20
2023-02-06T05:56:49.091Z,3.47
2023-02-06T05:59:19.569Z,3.27
2023-02-06T06:01:49.117Z,4.27
2023-02-06T06:04:17.333Z,3.70
2023-02-06T06:06:47.697Z,4.17
2023-02-06T06:09:16.014Z,3.20
2023-02-06T06:11:44.178Z,3.37
2023-02-06T06:14:13.219Z,3.33
2023-02-06T06:16:43.714Z,3.53
2023-02-06T06:19:15.582Z,3.50
2023-02-06T06:21:43.766Z,6.10
2023-02-06T06:24:11.904Z,6.35
2023-02-06T06:26:40.264Z,4.17
2023-02-06T06:29:08.375Z,4.70
2023-02-06T06:31:36.554Z,4.97
2023-02-06T06:34:07.883Z,4.33
2023-02-06T06:36:39.413Z,4.50
2023-02-06T06:39:07.634Z,4.67
2023-02-06T06:41:35.778Z,3.87
2023-02-06T06:44:04.078Z,4.33
2023-02-06T06:46:32.179Z,5.97
2023-02-06T06:49:02.624Z,4.63
2023-02-06T06:51:32.812Z,4.10
2023-02-06T06:54:04.616Z,4.33
2023-02-06T06:56:34.735Z,4.17
2023-02-06T06:59:05.703Z,4.53
2023-02-06T07:01:36.077Z,4.70
2023-02-06T07:04:04.334Z,4.57
2023-02-06T07:06:32.424Z,4.90
2023-02-06T07:09:00.604Z,4.73
2023-02-06T07:11:30.118Z,5.00
2023-02-06T07:14:00.519Z,5.47
2023-02-06T07:16:28.634Z,4.83
2023-02-06T07:18:56.735Z,4.63
2023-02-06T07:21:26.968Z,4.93
2023-02-06T07:23:55.159Z,5.13
2023-02-06T07:26:23.369Z,5.03
2023-02-06T07:28:55.146Z,5.53
2023-02-06T07:31:23.459Z,6.17
2023-02-06T07:33:51.559Z,5.67
2023-02-06T07:36:22.317Z,5.03
2023-02-06T07:38:52.457Z,6.27
2023-02-06T07:41:23.001Z,5.50
2023-02-06T07:43:51.191Z,7.60
2023-02-06T07:46:23.865Z,7.70
2023-02-06T07:48:54.490Z,8.03
2023-02-06T07:51:25.057Z,8.10
2023-02-06T07:53:53.189Z,7.63
2023-02-06T07:56:25.172Z,6.87
2023-02-06T07:58:54.257Z,7.13
2023-02-06T08:01:24.275Z,7.37
2023-02-06T08:03:52.824Z,7.63
2023-02-06T08:06:24.608Z,6.33
2023-02-06T08:08:56.723Z,6.80
2023-02-06T08:11:27.734Z,7.13
2023-02-06T08:13:58.672Z,7.33
2023-02-06T08:16:30.592Z,8.47
2023-02-06T08:18:58.770Z,6.87
2023-02-06T08:21:28.932Z,7.33
2023-02-06T08:24:01.181Z,6.77
2023-02-06T08:26:32.164Z,7.47
2023-02-06T08:29:03.705Z,7.30
2023-02-06T08:31:37.453Z,7.17
2023-02-06T08:34:06.273Z,8.00
2023-02-06T08:36:37.394Z,8.27
2023-02-06T08:39:07.907Z,7.17
2023-02-06T08:41:39.300Z,6.77
2023-02-06T08:44:09.116Z,7.43
2023-02-06T08:46:41.449Z,8.17
2023-02-06T08:49:13.624Z,7.30
2023-02-06T08:51:42.359Z,7.50
2023-02-06T08:54:14.167Z,6.67
2023-02-06T08:56:42.289Z,6.93
2023-02-06T08:59:10.906Z,7.83
2023-02-06T09:01:40.867Z,7.37
2023-02-06T09:04:11.702Z,7.07
2023-02-06T09:06:42.779Z,6.97
2023-02-06T09:09:13.561Z,7.63
2023-02-06T09:11:41.658Z,6.50
2023-02-06T09:14:13.803Z,6.23
2023-02-06T09:16:45.702Z,6.93
2023-02-06T09:19:16.107Z,7.60
2023-02-06T09:21:44.210Z,7.80
2023-02-06T09:24:12.416Z,7.90
2023-02-06T09:26:58.123Z,7.00
2023-02-06T09:29:28.816Z,9.63
2023-02-06T09:32:01.180Z,8.37
2023-02-06T09:34:29.967Z,9.37
2023-02-06T09:36:58.159Z,9.03
2023-02-06T09:39:28.827Z,9.20
2023-02-06T09:42:00.969Z,8.00
2023-02-06T09:44:31.653Z,8.00
2023-02-06T09:47:08.272Z,9.53
2023-02-06T09:49:40.508Z,9.87
2023-02-06T09:52:28.754Z,10.13
2023-02-06T09:55:04.137Z,11.13
2023-02-06T09:57:42.765Z,8.93
2023-02-06T10:00:26.519Z,9.77
2023-02-06T10:03:09.005Z,9.30
2023-02-06T10:05:47.459Z,9.00
2023-02-06T10:08:23.019Z,9.70
2023-02-06T10:10:54.331Z,9.60
2023-02-06T10:13:27.357Z,9.63
2023-02-06T10:16:13.781Z,9.60
2023-02-06T10:18:47.095Z,9.43
2023-02-06T10:21:29.739Z,9.73
2023-02-06T10:24:01.020Z,8.70
2023-02-06T10:26:29.509Z,9.27
2023-02-06T10:29:01.315Z,10.23
2023-02-06T10:31:51.231Z,9.60
2023-02-06T10:34:33.758Z,9.67
2023-02-06T10:37:15.794Z,9.37
2023-02-06T10:40:05.195Z,9.20
2023-02-06T10:42:44.776Z,9.63
2023-02-06T10:45:20.458Z,9.50
2023-02-06T10:47:55.350Z,9.47
2023-02-06T10:50:30.865Z,10.67
2023-02-06T10:53:04.884Z,10.97
2023-02-06T10:55:43.934Z,10.77
2023-02-06T10:58:18.083Z,9.23
2023-02-06T11:00:48.116Z,10.67
2023-02-06T11:03:20.144Z,10.93
2023-02-06T11:05:50.081Z,11.13
2023-02-06T11:08:23.444Z,10.30
2023-02-06T11:10:54.538Z,10.93
2023-02-06T11:13:27.890Z,10.80
2023-02-06T11:16:02.535Z,10.90
2023-02-06T11:18:34.272Z,10.03
2023-02-06T11:21:08.962Z,8.73
2023-02-06T11:23:39.839Z,9.33
2023-02-06T11:26:15.088Z,9.33
2023-02-06T11:28:53.084Z,9.57
2023-02-06T11:31:43.197Z,11.03
2023-02-06T11:34:25.438Z,10.40
2023-02-06T11:36:57.385Z,9.97
2023-02-06T11:39:30.338Z,10.27
2023-02-06T11:42:04.979Z,10.00
2023-02-06T11:44:41.074Z,9.83
2023-02-06T11:47:38.080Z,10.23
2023-02-06T11:50:24.171Z,9.70
2023-02-06T11:53:08.433Z,11.23
2023-02-06T11:55:37.923Z,10.33
2023-02-06T11:58:21.401Z,11.57
2023-02-06T12:01:05.309Z,11.00
2023-02-06T12:03:36.817Z,12.00
2023-02-06T12:06:12.414Z,11.27
2023-02-06T12:08:51.758Z,10.83
2023-02-06T12:11:24.942Z,12.30
2023-02-06T12:13:58.261Z,11.50
2023-02-06T12:16:29.848Z,9.47
2023-02-06T12:19:02.151Z,9.23
2023-02-06T12:21:42.426Z,9.30
2023-02-06T12:24:29.442Z,8.07
2023-02-06T12:27:01.773Z,8.20
2023-02-06T12:29:36.876Z,10.63
2023-02-06T12:32:14.697Z,8.97
2023-02-06T12:34:53.852Z,7.67
2023-02-06T12:37:31.538Z,8.67
2023-02-06T12:40:01.686Z,8.87
2023-02-06T12:42:43.058Z,8.70
2023-02-06T12:45:34.037Z,12.40
2023-02-06T12:48:12.785Z,7.47
2023-02-06T12:50:49.516Z,9.13
2023-02-06T12:53:26.315Z,8.27
2023-02-06T12:56:00.791Z,10.03
2023-02-06T12:58:37.718Z,8.63
2023-02-06T13:01:30.023Z,8.97
2023-02-06T13:04:04.406Z,8.60
2023-02-06T13:06:39.932Z,9.03
2023-02-06T13:09:09.438Z,8.30
2023-02-06T13:11:42.488Z,8.43
2023-02-06T13:14:21.060Z,9.07
2023-02-06T13:16:55.764Z,8.30
2023-02-06T13:19:50.585Z,8.53
2023-02-06T13:22:44.779Z,7.83
2023-02-06T13:25:52.656Z,9.67
2023-02-06T13:28:46.679Z,9.20
2023-02-06T13:31:27.386Z,7.10
2023-02-06T13:34:01.714Z,7.73
2023-02-06T13:36:50.364Z,6.80
2023-02-06T13:39:31.520Z,6.97
2023-02-06T13:42:04.357Z,9.27
2023-02-06T13:44:38.094Z,7.50
2023-02-06T13:47:42.632Z,7.73
2023-02-06T13:50:52.579Z,7.87
2023-02-06T13:53:39.058Z,7.77
2023-02-06T13:56:25.950Z,8.53
2023-02-06T13:58:56.339Z,7.67
2023-02-06T14:01:29.910Z,7.57
2023-02-06T14:04:00.439Z,8.33
2023-02-06T14:06:51.313Z,7.77
2023-02-06T14:09:56.469Z,8.00
2023-02-06T14:12:44.423Z,8.50
2023-02-06T14:15:34.744Z,6.50
2023-02-06T14:18:17.750Z,7.23
2023-02-06T14:20:52.686Z,7.17
2023-02-06T14:23:33.113Z,6.90
2023-02-06T14:26:14.011Z,5.80
2023-02-06T14:28:55.107Z,5.43
2023-02-06T14:31:34.525Z,5.47
2023-02-06T14:34:18.726Z,5.20
2023-02-06T14:37:01.098Z,6.23
2023-02-06T14:39:44.620Z,6.07
2023-02-06T14:42:19.748Z,6.27
2023-02-06T14:44:53.959Z,5.80
2023-02-06T14:47:25.840Z,7.60
2023-02-06T14:49:59.809Z,6.40
2023-02-06T14:52:30.394Z,6.77
2023-02-06T14:54:58.551Z,5.50
2023-02-06T14:57:30.970Z,6.37
2023-02-06T15:00:04.321Z,6.03
2023-02-06T15:02:34.449Z,5.20
2023-02-06T15:05:07.643Z,5.70
2023-02-06T15:07:39.503Z,5.93
2023-02-06T15:10:10.933Z,5.43
2023-02-06T15:12:39.676Z,6.57
2023-02-06T15:15:18.295Z,6.13
2023-02-06T15:18:02.191Z,5.63
2023-02-06T15:20:39.090Z,6.07
2023-02-06T15:23:18.098Z,6.83
2023-02-06T15:25:59.709Z,5.73
2023-02-06T15:28:30.085Z,7.07
2023-02-06T15:31:00.350Z,6.57
2023-02-06T15:33:33.877Z,6.67
2023-02-06T15:36:06.566Z,7.57
2023-02-06T15:38:35.182Z,6.67
2023-02-06T15:41:06.656Z,6.53
2023-02-06T15:43:36.112Z,7.50
2023-02-06T15:46:07.173Z,5.97
2023-02-06T15:48:38.011Z,6.53
2023-02-06T15:51:20.217Z,6.33
2023-02-06T15:53:51.753Z,5.80
2023-02-06T15:56:27.276Z,5.40
2023-02-06T15:58:59.284Z,5.47
2023-02-06T16:01:29.117Z,5.43
2023-02-06T16:04:00.212Z,4.97
2023-02-06T16:06:29.963Z,5.53
2023-02-06T16:09:02.907Z,6.67
2023-02-06T16:11:51.036Z,6.20
2023-02-06T16:14:25.402Z,5.53
2023-02-06T16:16:59.191Z,5.80
2023-02-06T16:19:37.089Z,5.43
2023-02-06T16:22:15.000Z,5.10
2023-02-06T16:24:43.166Z,5.30
2023-02-06T16:27:19.027Z,5.90
2023-02-06T16:29:50.154Z,5.23
2023-02-06T16:32:22.050Z,5.47
2023-02-06T16:34:50.188Z,6.93
2023-02-06T16:37:23.871Z,6.10
2023-02-06T16:39:52.376Z,7.17
2023-02-06T16:42:25.754Z,6.30
2023-02-06T16:44:59.400Z,7.07
2023-02-06T16:47:30.026Z,7.03
2023-02-06T16:49:58.233Z,6.03
2023-02-06T16:52:30.794Z,7.20
2023-02-06T16:55:02.233Z,7.27
2023-02-06T16:57:32.824Z,6.10
2023-02-06T17:00:04.996Z,7.67
2023-02-06T17:02:33.152Z,6.73
2023-02-06T17:05:05.099Z,6.87
2023-02-06T17:07:35.124Z,7.83
2023-02-06T17:10:03.894Z,6.97
2023-02-06T17:12:32.310Z,9.60
2023-02-06T17:15:00.513Z,10.87
2023-02-06T17:17:28.800Z,10.17
2023-02-06T17:19:57.364Z,10.33
2023-02-06T17:22:25.526Z,11.10
2023-02-06T17:24:55.042Z,8.63
2023-02-06T17:27:24.055Z,8.57
2023-02-06T17:29:53.833Z,9.63
2023-02-06T17:32:23.160Z,7.47
2023-02-06T17:34:58.133Z,7.80
2023-02-06T17:37:26.308Z,7.47
2023-02-06T17:39:55.937Z,8.03
2023-02-06T17:42:25.693Z,6.80
2023-02-06T17:44:56.524Z,6.93
2023-02-06T17:47:24.790Z,7.73
2023-02-06T17:49:53.291Z,6.27
2023-02-06T17:52:21.468Z,6.73
2023-02-06T17:54:49.681Z,7.17
2023-02-06T17:57:19.275Z,6.13
2023-02-06T17:59:47.437Z,7.43
2023-02-06T18:02:15.736Z,6.50
2023-02-06T18:04:44.212Z,7.10
2023-02-06T18:07:12.426Z,6.17
2023-02-06T18:09:42.166Z,6.53
2023-02-06T18:12:10.866Z,5.97
2023-02-06T18:14:40.723Z,7.87
2023-02-06T18:17:11.953Z,10.33
2023-02-06T18:19:42.665Z,10.73
2023-02-06T18:22:12.750Z,10.47
2023-02-06T18:24:43.552Z,12.23
2023-02-06T18:27:12.231Z,11.70
2023-02-06T18:29:49.864Z,12.60
2023-02-06T18:32:20.752Z,15.10
2023-02-06T18:34:48.934Z,12.87
2023-02-06T18:37:17.410Z,14.73
2023-02-06T18:39:48.156Z,11.80
2023-02-06T18:42:33.516Z,12.33
2023-02-06T18:45:04.284Z,11.67
2023-02-06T18:47:32.723Z,11.30
2023-02-06T18:50:03.490Z,10.67
2023-02-06T18:52:31.660Z,12.23
2023-02-06T18:54:59.855Z,13.75
2023-02-06T18:57:28.044Z,11.27
2023-02-06T18:59:56.265Z,9.07
2023-02-06T19:02:25.910Z,9.73
2023-02-06T19:04:58.592Z,10.17
2023-02-06T19:07:26.960Z,9.77
2023-02-06T19:09:58.325Z,10.93
2023-02-06T19:12:28.200Z,10.80
2023-02-06T19:14:57.078Z,10.03
2023-02-06T19:17:29.381Z,9.60
2023-02-06T19:19:57.863Z,9.77
2023-02-06T19:22:26.061Z,10.47
2023-02-06T19:24:54.278Z,9.60
2023-02-06T19:27:26.183Z,9.33
2023-02-06T19:29:54.408Z,9.07
2023-02-06T19:32:22.562Z,8.57
2023-02-06T19:34:54.119Z,9.63
2023-02-06T19:37:22.616Z,8.13
2023-02-06T19:39:52.877Z,11.57
2023-02-06T19:42:21.068Z,12.88
2023-02-06T19:44:54.642Z,8.93
2023-02-06T19:47:22.906Z,9.53
2023-02-06T19:49:53.395Z,9.93
2023-02-06T19:52:23.830Z,8.93
2023-02-06T19:54:51.972Z,11.17
2023-02-06T19:57:22.453Z,9.33
2023-02-06T19:59:50.842Z,9.73
2023-02-06T20:02:19.144Z,9.57
2023-02-06T20:04:47.382Z,11.20
2023-02-06T20:07:16.969Z,13.47
2023-02-06T20:09:47.474Z,13.87
2023-02-06T20:12:18.222Z,15.33
2023-02-06T20:14:46.678Z,13.67
2023-02-06T20:17:15.112Z,15.07
2023-02-06T20:19:43.220Z,12.90
2023-02-06T20:22:11.440Z,12.70
2023-02-06T20:24:41.133Z,11.17
2023-02-06T20:27:09.578Z,11.80
2023-02-06T20:29:39.396Z,10.47
2023-02-06T20:32:08.209Z,10.10
2023-02-06T20:34:36.652Z,10.87
2023-02-06T20:37:05.181Z,9.70
2023-02-06T20:39:33.360Z,9.20
2023-02-06T20:42:05.390Z,8.90
2023-02-06T20:44:35.706Z,8.90
2023-02-06T20:47:03.920Z,10.17
2023-02-06T20:49:32.144Z,10.53
2023-02-06T20:52:03.171Z,9.57
2023-02-06T20:54:31.376Z,9.77
2023-02-06T20:57:00.473Z,9.77
2023-02-06T20:59:33.136Z,9.63
2023-02-06T21:02:04.391Z,11.20
2023-02-06T21:04:34.878Z,11.00
2023-02-06T21:07:03.227Z,9.30
2023-02-06T21:09:31.451Z,9.73
2023-02-06T21:12:02.797Z,8.37
2023-02-06T21:14:34.421Z,8.87
2023-02-06T21:17:04.900Z,10.00
2023-02-06T21:19:33.126Z,9.83
2023-02-06T21:22:03.642Z,9.93
2023-02-06T21:24:31.946Z,10.03
2023-02-06T21:27:00.326Z,9.40
2023-02-06T21:29:31.559Z,8.90
2023-02-06T21:32:13.012Z,8.80
2023-02-06T21:34:42.674Z,8.70
2023-02-06T21:37:10.883Z,8.00
2023-02-06T21:39:41.133Z,8.23
2023-02-06T21:42:09.794Z,8.30
2023-02-06T21:44:38.961Z,8.93
2023-02-06T21:47:10.159Z,9.03
2023-02-06T21:49:38.783Z,8.27
2023-02-06T21:52:07.251Z,8.57
2023-02-06T21:54:35.583Z,8.73
2023-02-06T21:57:03.911Z,9.93
2023-02-06T21:59:34.446Z,9.17
2023-02-06T22:02:02.634Z,9.67
2023-02-06T22:04:34.520Z,9.97
2023-02-06T22:07:05.395Z,9.83
2023-02-06T22:09:33.642Z,10.13
2023-02-06T22:12:01.932Z,9.70
2023-02-06T22:14:32.683Z,14.20
2023-02-06T22:17:01.011Z,15.03
2023-02-06T22:19:31.453Z,15.57
2023-02-06T22:22:03.626Z,14.27
2023-02-06T22:24:31.990Z,12.13
2023-02-06T22:27:00.101Z,11.80
2023-02-06T22:29:30.030Z,10.43
2023-02-06T22:31:58.366Z,10.90
2023-02-06T22:34:26.438Z,10.37
2023-02-06T22:36:57.314Z,10.90
2023-02-06T22:39:27.407Z,8.60
2023-02-06T22:41:55.499Z,8.73
2023-02-06T22:44:23.701Z,8.33
2023-02-06T22:46:53.818Z,8.93
2023-02-06T22:49:24.664Z,9.50
2023-02-06T22:51:53.090Z,11.97
2023-02-06T22:54:21.596Z,8.57
2023-02-06T22:56:51.415Z,7.73
2023-02-06T22:59:21.702Z,9.07
2023-02-06T23:01:52.255Z,9.33
2023-02-06T23:04:22.033Z,8.80
2023-02-06T23:06:53.011Z,8.93
2023-02-06T23:09:22.873Z,9.57
2023-02-06T23:11:53.211Z,8.90
2023-02-06T23:14:21.717Z,9.43
2023-02-06T23:16:49.869Z,8.60
2023-02-06T23:19:18.869Z,8.87
2023-02-06T23:21:51.174Z,8.70
2023-02-06T23:24:20.039Z,9.30
2023-02-06T23:26:50.380Z,9.47
2023-02-06T23:29:22.005Z,8.20
2023-02-06T23:31:50.966Z,9.90
2023-02-06T23:34:19.701Z,9.30
2023-02-06T23:36:48.162Z,8.57
2023-02-06T23:39:19.223Z,9.80
2023-02-06T23:41:49.904Z,8.80
2023-02-06T23:44:20.072Z,8.60
2023-02-06T23:46:48.729Z,9.57
2023-02-06T23:49:19.371Z,9.60
2023-02-06T23:51:47.463Z,9.97
2023-02-06T23:54:15.632Z,8.97
2023-02-06T23:56:43.833Z,9.33
2023-02-06T23:59:14.472Z,9.37
